Verdi, Minnesota
Current Conditions -  °F | °C
As of 3:14 AM on Wednesday 28 Jan 2015 (Local Time) from KPQN Reporting Station
Clear Clear  
Wind Chill: 23°   Ceiling: Unl
Heat Index: 34°   Visibility: 10mi
Dew Point: 30°   Wind: 17mph
Humidity: 87%   Direction: 170°S
Pressure: 29.87"   Gusts: 22mph
Location:  44.066°N, 96.3302°W
Report Text: KPQN 280914Z AUTO 17015G19KT 10SM CLR 01/M01 A2987 RMK AO2
Loading
Personal Weather Stations






























Interactive Weather Map New forecast layout! Learn more

10-Day Weather Forecast

Advertisements
Track Severe Weather on mobile